Time;durP1;ratioP1;P1;durP2;ratioP2;P2;SDS_P1;SDS_P2;PMS_P1;PMS_P2;Temp;Humidity;BMP_temperature;BMP_pressure;BME280_temperature;BME280_humidity;BME280_pressure;Samples;Min_cycle;Max_cycle;Signal;HPM_P1;HPM_P2
2020/12/18 00:01:21;37110.00;0.12;64.89;0.00;0.00;0.62;;;;;14.30;1.00;;;;;;2268472;61;941;-82
2020/12/18 00:03:48;44706.00;0.15;78.03;0.00;0.00;0.62;;;;;13.70;1.00;;;;;;2268449;61;1588;-84
2020/12/18 00:06:15;9843.00;0.03;17.68;0.00;0.00;0.62;;;;;13.80;1.00;;;;;;2269970;61;1032;-83
2020/12/18 00:08:41;6492.00;0.02;11.87;0.00;0.00;0.62;;;;;14.00;1.00;;;;;;2278184;60;1023;-81
2020/12/18 00:11:08;0.00;0.00;0.62;0.00;0.00;0.62;;;;;14.10;1.00;;;;;;2274666;60;1025;-82
2020/12/18 00:13:34;67684.00;0.23;117.76;0.00;0.00;0.62;;;;;14.00;1.00;;;;;;2274752;60;1456;-83
2020/12/18 00:16:02;44448.00;0.15;77.58;0.00;0.00;0.62;;;;;14.00;1.00;;;;;;2281215;60;1998;-82
2020/12/18 00:18:28;21889.00;0.07;38.54;0.00;0.00;0.62;;;;;14.00;1.00;;;;;;2285029;60;988;-85
2020/12/18 00:20:55;0.00;0.00;0.62;0.00;0.00;0.62;;;;;14.00;1.00;;;;;;2285157;60;1036;-83
2020/12/18 00:23:21;15900.00;0.05;28.17;0.00;0.00;0.62;;;;;14.00;1.00;;;;;;2285122;60;1289;-83
2020/12/18 00:25:49;41249.00;0.14;72.05;0.00;0.00;0.62;;;;;14.20;1.00;;;;;;2285017;60;927;-82
2020/12/18 00:28:16;37284.00;0.12;65.19;0.00;0.00;0.62;;;;;14.20;1.00;;;;;;2277939;60;999;-83
2020/12/18 00:30:43;90920.00;0.30;157.90;0.00;0.00;0.62;;;;;14.30;1.00;;;;;;2285149;60;904;-84
2020/12/18 00:33:10;54565.00;0.18;95.08;0.00;0.00;0.62;;;;;14.20;1.00;;;;;;2280461;61;1309;-83
2020/12/18 00:35:37;0.00;0.00;0.62;0.00;0.00;0.62;;;;;14.20;1.00;;;;;;2270621;61;1907;-83
2020/12/18 00:38:03;42559.00;0.14;74.32;0.00;0.00;0.62;;;;;14.20;1.00;;;;;;2280017;61;934;-82
2020/12/18 00:40:30;28026.00;0.09;49.17;0.00;0.00;0.62;;;;;14.20;1.00;;;;;;2273892;61;1016;-83
2020/12/18 00:42:57;76861.00;0.26;133.61;0.00;0.00;0.62;;;;;14.00;1.00;;;;;;2273942;61;1466;-84
2020/12/18 00:45:24;30473.00;0.10;53.40;0.00;0.00;0.62;;;;;13.90;1.00;;;;;;2272345;61;1127;-83
2020/12/18 00:47:50;0.00;0.00;0.62;0.00;0.00;0.62;;;;;13.90;1.00;;;;;;2262506;61;1013;-84
2020/12/18 00:50:18;40267.00;0.13;70.35;0.00;0.00;0.62;;;;;14.10;1.00;;;;;;2266318;61;1025;-84
2020/12/18 00:52:45;0.00;0.00;0.62;0.00;0.00;0.62;;;;;14.10;1.00;;;;;;2272920;61;1421;-82
2020/12/18 00:55:11;0.00;0.00;0.62;0.00;0.00;0.62;;;;;14.00;1.00;;;;;;2266168;61;1982;-83
2020/12/18 00:57:38;6496.00;0.02;11.88;0.00;0.00;0.62;;;;;14.00;1.00;;;;;;2269785;61;1000;-83
2020/12/18 01:00:05;52630.00;0.18;91.73;0.00;0.00;0.62;;;;;14.00;1.00;;;;;;2269680;61;966;-84
2020/12/18 01:02:32;2957.00;0.01;5.75;0.00;0.00;0.62;;;;;14.10;1.00;;;;;;2277361;60;1308;-83
2020/12/18 01:04:59;4495.00;0.01;8.41;0.00;0.00;0.62;;;;;14.20;1.00;;;;;;2277631;60;1016;-84
2020/12/18 01:07:26;36201.00;0.12;63.31;0.00;0.00;0.62;;;;;14.20;1.00;;;;;;2285022;60;992;-83
2020/12/18 01:09:53;13391.00;0.04;23.82;0.00;0.00;0.62;;;;;14.10;1.00;;;;;;2281143;60;1007;-85
2020/12/18 01:12:19;0.00;0.00;0.62;0.00;0.00;0.62;;;;;14.20;1.00;;;;;;2284937;60;1375;-83
2020/12/18 01:14:46;7252.00;0.02;13.19;0.00;0.00;0.62;;;;;14.10;1.00;;;;;;2281161;60;947;-85
2020/12/18 01:17:14;0.00;0.00;0.62;0.00;0.00;0.62;;;;;14.10;1.00;;;;;;2284949;60;1989;-84
2020/12/18 01:19:41;19798.00;0.07;34.92;0.00;0.00;0.62;;;;;13.70;1.00;;;;;;2284921;60;917;-84
2020/12/18 01:22:07;117931.00;0.39;204.51;0.00;0.00;0.62;;;;;13.50;1.00;;;;;;2284948;60;1398;-83
2020/12/18 01:24:35;12175.00;0.04;21.72;0.00;0.00;0.62;;;;;12.90;1.00;;;;;;2276219;61;941;-83
2020/12/18 01:27:01;30190.00;0.10;52.91;0.00;0.00;0.62;;;;;13.00;1.00;;;;;;2276253;61;962;-83
2020/12/18 01:29:29;0.00;0.00;0.62;0.00;0.00;0.62;;;;;13.00;1.00;;;;;;2266163;61;1136;-83
2020/12/18 01:31:55;29520.00;0.10;51.75;0.00;0.00;0.62;;;;;13.00;1.00;;;;;;2264145;61;1380;-83
2020/12/18 01:34:22;29244.00;0.10;51.27;0.00;0.00;0.62;;;;;13.10;1.00;;;;;;2261014;61;1013;-83
2020/12/18 01:36:48;211092.00;0.70;365.01;66218.00;0.22;115.22;;;;;13.00;1.00;;;;;;2263786;61;1913;-83
2020/12/18 01:39:15;90525.00;0.30;157.21;0.00;0.00;0.62;;;;;12.80;1.00;;;;;;2264107;61;1045;-82
2020/12/18 01:41:43;7487.00;0.02;13.60;0.00;0.00;0.62;;;;;12.50;1.00;;;;;;2265229;61;1172;-84
2020/12/18 01:44:09;138739.00;0.46;240.40;32509.00;0.11;56.93;;;;;12.70;1.00;;;;;;2265548;61;1502;-84
2020/12/18 01:46:38;6982.00;0.02;12.72;0.00;0.00;0.62;;;;;12.90;1.00;;;;;;2264248;61;1036;-84
2020/12/18 01:49:05;25158.00;0.08;44.20;0.00;0.00;0.62;;;;;13.20;1.00;;;;;;2265362;61;957;-83
2020/12/18 01:51:32;30972.00;0.10;54.27;0.00;0.00;0.62;;;;;13.30;1.00;;;;;;2264122;61;957;-83
2020/12/18 01:54:00;112776.00;0.38;195.62;0.00;0.00;0.62;;;;;13.50;1.00;;;;;;2259970;61;1355;-82
2020/12/18 01:56:28;41360.00;0.14;72.24;0.00;0.00;0.62;;;;;13.80;1.00;;;;;;2259231;61;1920;-83
2020/12/18 01:58:55;38135.00;0.13;66.66;0.00;0.00;0.62;;;;;13.90;1.00;;;;;;2260070;61;1762;-84
2020/12/18 02:01:22;31842.00;0.11;55.77;0.00;0.00;0.62;;;;;13.90;1.00;;;;;;2253524;61;1042;-84
2020/12/18 02:03:48;29269.00;0.10;51.32;0.00;0.00;0.62;;;;;14.00;1.00;;;;;;2261446;61;1378;-82
2020/12/18 02:06:17;11416.00;0.04;20.40;0.00;0.00;0.62;;;;;14.00;1.00;;;;;;2264694;61;1037;-82
2020/12/18 02:08:45;749.00;0.00;1.92;0.00;0.00;0.62;;;;;13.90;1.00;;;;;;2258380;61;950;-84
2020/12/18 02:11:12;44981.00;0.15;78.51;0.00;0.00;0.62;;;;;13.70;1.00;;;;;;2258943;61;1045;-81
2020/12/18 02:13:39;17813.00;0.06;31.48;0.00;0.00;0.62;;;;;13.70;1.00;;;;;;2272193;61;1293;-82
2020/12/18 02:16:06;80597.00;0.27;140.07;0.00;0.00;0.62;;;;;13.70;1.00;;;;;;2279229;60;1994;-82
2020/12/18 02:18:33;4276.00;0.01;8.03;0.00;0.00;0.62;;;;;13.00;1.00;;;;;;2284405;60;1023;-83
2020/12/18 02:21:03;73561.00;0.25;127.91;0.00;0.00;0.62;;;;;12.30;1.00;;;;;;2274324;60;960;-83
2020/12/18 02:23:30;26853.00;0.09;47.14;0.00;0.00;0.62;;;;;11.70;1.00;;;;;;2284774;60;1805;-83
2020/12/18 02:26:06;11552.00;0.04;20.64;0.00;0.00;0.62;;;;;11.60;1.00;;;;;;2284812;60;998;-83
2020/12/18 02:28:36;50514.00;0.17;88.08;0.00;0.00;0.62;;;;;11.40;1.00;;;;;;2284800;60;1074;-83
2020/12/18 02:39:19;340220.00;1.13;587.05;0.00;0.00;0.62;;;;;11.30;1.00;;;;;;2290470;60;1218;-84
2020/12/18 02:41:47;372651.00;1.24;642.79;0.00;0.00;0.62;;;;;11.50;1.00;;;;;;2288614;60;937;-82
2020/12/18 02:44:13;276478.00;0.92;477.48;0.00;0.00;0.62;;;;;11.80;1.00;;;;;;2288678;60;1390;-81
2020/12/18 02:46:39;276959.00;0.92;478.31;0.00;0.00;0.62;;;;;11.90;1.00;;;;;;2279820;61;1033;-83
2020/12/18 02:49:06;381812.00;1.27;658.54;0.00;0.00;0.62;;;;;12.40;1.00;;;;;;2276713;61;957;-84
2020/12/18 02:51:34;451346.00;1.50;778.10;0.00;0.00;0.62;;;;;12.50;1.00;;;;;;2276701;61;1046;-83
2020/12/18 02:54:01;383177.00;1.28;660.89;0.00;0.00;0.62;;;;;12.10;1.00;;;;;;2279828;61;1475;-82
2020/12/18 02:56:28;251703.00;0.84;434.88;0.00;0.00;0.62;;;;;11.70;1.00;;;;;;2273084;61;2004;-82
2020/12/18 02:58:57;209431.00;0.70;362.16;0.00;0.00;0.62;;;;;11.60;1.00;;;;;;2279865;61;1008;-82
2020/12/18 03:01:23;163661.00;0.55;283.35;0.00;0.00;0.62;;;;;12.00;1.00;;;;;;2273192;61;1053;-82
2020/12/18 03:03:50;48305.00;0.16;84.25;0.00;0.00;0.62;;;;;12.60;1.00;;;;;;2271059;60;1314;-84
2020/12/18 03:06:16;369790.00;1.23;637.88;0.00;0.00;0.62;;;;;12.80;1.00;;;;;;2281384;60;1063;-83
2020/12/18 03:08:43;432344.00;1.44;745.42;23073.00;0.08;40.59;;;;;12.50;1.00;;;;;;2275755;61;1036;-81
2020/12/18 03:11:09;341809.00;1.14;589.78;0.00;0.00;0.62;;;;;12.20;1.00;;;;;;2275714;61;917;-82
2020/12/18 03:13:36;276508.00;0.92;477.53;0.00;0.00;0.62;;;;;12.00;1.00;;;;;;2271706;61;1384;-82
2020/12/18 03:16:04;257058.00;0.86;444.09;0.00;0.00;0.62;;;;;12.30;1.00;;;;;;2265053;61;2005;-83
2020/12/18 03:18:30;341486.00;1.14;589.23;0.00;0.00;0.62;;;;;12.40;1.00;;;;;;2261957;61;967;-82
2020/12/18 03:20:56;196190.00;0.65;339.37;0.00;0.00;0.62;;;;;12.70;1.00;;;;;;2265073;61;1017;-84
2020/12/18 03:23:23;315714.00;1.05;544.93;0.00;0.00;0.62;;;;;13.00;1.00;;;;;;2265109;61;1314;-84
2020/12/18 03:25:49;302203.00;1.01;521.71;0.00;0.00;0.62;;;;;13.40;1.00;;;;;;2273238;60;1005;-84
2020/12/18 03:28:16;309218.00;1.03;533.77;0.00;0.00;0.62;;;;;13.50;1.00;;;;;;2283869;60;1035;-82
2020/12/18 03:30:42;410097.00;1.37;707.16;0.00;0.00;0.62;;;;;13.80;1.00;;;;;;2284224;60;1072;-83
2020/12/18 03:33:10;233098.00;0.78;402.88;0.00;0.00;0.62;;;;;13.80;1.00;;;;;;2281341;60;1341;-80
2020/12/18 03:35:36;351016.00;1.17;605.61;0.00;0.00;0.62;;;;;13.70;1.00;;;;;;2288255;60;1913;-83
2020/12/18 03:38:03;191713.00;0.64;331.66;0.00;0.00;0.62;;;;;12.80;1.00;;;;;;2279689;61;964;-82
2020/12/18 03:40:30;248755.00;0.83;429.81;0.00;0.00;0.62;;;;;12.50;1.00;;;;;;2279730;61;1169;-81
2020/12/18 03:42:56;347702.00;1.16;599.91;0.00;0.00;0.62;;;;;11.70;1.00;;;;;;2279698;61;1392;-82
2020/12/18 03:45:23;297260.00;0.99;513.21;0.00;0.00;0.62;;;;;11.50;1.00;;;;;;2279759;61;1004;-83
2020/12/18 03:47:49;654221.00;2.18;1127.94;59433.00;0.20;103.50;;;;;12.00;1.00;;;;;;2279741;61;1009;-83
2020/12/18 03:50:17;300122.00;1.00;518.13;0.00;0.00;0.62;;;;;12.10;1.00;;;;;;2279671;60;1024;-82
2020/12/18 03:52:43;240064.00;0.80;414.86;0.00;0.00;0.62;;;;;12.60;1.00;;;;;;2276301;61;1349;-83
2020/12/18 03:55:10;224396.00;0.75;387.91;0.00;0.00;0.62;;;;;12.90;1.00;;;;;;2271359;60;1040;-82
2020/12/18 03:57:36;340948.00;1.14;588.30;0.00;0.00;0.62;;;;;12.90;1.00;;;;;;2281876;60;2008;-81
2020/12/18 04:00:05;376106.00;1.25;648.73;0.00;0.00;0.62;;;;;13.10;1.00;;;;;;2278490;60;960;-83
2020/12/18 04:02:32;207820.00;0.69;359.38;0.00;0.00;0.62;;;;;12.80;1.00;;;;;;2289102;60;1367;-82
2020/12/18 04:04:58;460072.00;1.53;793.11;40620.00;0.14;70.96;;;;;12.50;1.00;;;;;;2289114;60;1015;-83
2020/12/18 04:07:26;262005.00;0.87;452.60;0.00;0.00;0.62;;;;;12.50;1.00;;;;;;2275978;61;1012;-84
2020/12/18 04:09:52;239417.00;0.80;413.75;0.00;0.00;0.62;;;;;12.20;1.00;;;;;;2276386;61;1041;-82
2020/12/18 04:12:18;189639.00;0.63;328.09;0.00;0.00;0.62;;;;;12.00;1.00;;;;;;2268005;61;1648;-83
2020/12/18 04:14:45;228776.00;0.76;395.44;0.00;0.00;0.62;;;;;12.10;1.00;;;;;;2264917;61;1037;-82
2020/12/18 04:17:12;275796.00;0.92;476.31;0.00;0.00;0.62;;;;;11.90;1.00;;;;;;2268375;61;1988;-83
2020/12/18 04:19:38;361168.00;1.20;623.06;0.00;0.00;0.62;;;;;11.40;1.00;;;;;;2264850;61;1012;-81
2020/12/18 04:22:05;131466.00;0.44;227.86;0.00;0.00;0.62;;;;;11.00;1.00;;;;;;2268302;61;1290;-82
2020/12/18 04:24:32;294928.00;0.98;509.20;0.00;0.00;0.62;;;;;11.40;1.40;;;;;;2269718;61;1039;-83
2020/12/18 04:26:58;325661.00;1.09;562.03;0.00;0.00;0.62;;;;;11.50;1.00;;;;;;2277006;60;1128;-81
2020/12/18 04:29:25;239908.00;0.80;414.59;0.00;0.00;0.62;;;;;11.60;1.00;;;;;;2277985;60;1021;-83
2020/12/18 04:31:51;292193.00;0.97;504.50;0.00;0.00;0.62;;;;;11.90;1.00;;;;;;2281679;60;1462;-81
2020/12/18 04:34:18;232656.00;0.78;402.12;0.00;0.00;0.62;;;;;12.10;1.00;;;;;;2288950;60;1036;-82
2020/12/18 04:36:44;352199.00;1.17;607.64;0.00;0.00;0.62;;;;;11.60;1.00;;;;;;2281746;60;2010;-81
2020/12/18 04:39:11;329455.00;1.10;568.55;0.00;0.00;0.62;;;;;11.70;1.00;;;;;;2278589;60;923;-82
2020/12/18 04:41:38;359433.00;1.20;620.07;0.00;0.00;0.62;;;;;11.90;1.00;;;;;;2276033;61;1036;-81
2020/12/18 04:44:05;269291.00;0.90;465.12;0.00;0.00;0.62;;;;;11.80;1.00;;;;;;2269468;61;1428;-83
2020/12/18 04:46:36;341759.00;1.14;589.70;19943.00;0.07;35.17;;;;;11.30;1.00;;;;;;2263998;61;1075;-83
2020/12/18 04:49:04;139852.00;0.47;242.32;0.00;0.00;0.62;;;;;11.20;1.00;;;;;;2257626;61;1001;-83
2020/12/18 04:51:31;255441.00;0.85;441.31;0.00;0.00;0.62;;;;;11.30;1.00;;;;;;2260866;61;1041;-81
2020/12/18 04:54:00;413664.00;1.38;713.30;0.00;0.00;0.62;;;;;11.30;1.00;;;;;;2257334;61;1369;-83
2020/12/18 04:56:27;359753.00;1.20;620.62;41675.00;0.14;72.79;;;;;11.40;1.00;;;;;;2259931;61;1903;-83
2020/12/18 04:58:57;254816.00;0.85;440.23;0.00;0.00;0.62;;;;;11.40;1.00;;;;;;2265339;61;1012;-82
2020/12/18 05:01:25;278597.00;0.93;481.13;0.00;0.00;0.62;;;;;11.10;1.00;;;;;;2268762;61;1030;-82
2020/12/18 05:03:53;453916.00;1.51;782.52;92548.00;0.31;160.71;;;;;11.00;1.00;;;;;;2269369;61;1330;-81
2020/12/18 05:06:19;539911.00;1.80;930.57;118480.00;0.39;205.46;;;;;11.60;1.00;;;;;;2265978;61;1010;-82
2020/12/18 05:08:47;580060.00;1.93;999.80;79881.00;0.27;138.83;;;;;11.70;1.00;;;;;;2275976;61;1227;-83
2020/12/18 05:11:21;534823.00;1.78;921.80;88464.00;0.29;153.66;;;;;11.40;1.00;;;;;;2275956;61;1044;-82
2020/12/18 05:16:19;401960.00;1.34;693.17;0.00;0.00;0.62;;;;;11.00;1.00;;;;;;2286397;60;1898;-82
2020/12/18 05:18:46;316812.00;1.06;546.82;0.00;0.00;0.62;;;;;11.20;1.00;;;;;;2274413;60;961;-81
2020/12/18 05:21:13;176120.00;0.59;304.81;0.00;0.00;0.62;;;;;11.90;1.00;;;;;;2284826;60;997;-83
2020/12/18 05:23:41;198216.00;0.66;342.85;0.00;0.00;0.62;;;;;11.30;1.00;;;;;;2284578;60;1437;-83
2020/12/18 05:26:08;246500.00;0.82;425.93;0.00;0.00;0.62;;;;;11.30;1.00;;;;;;2280991;60;1060;-82
2020/12/18 05:28:43;221686.00;0.74;383.24;0.00;0.00;0.62;;;;;11.80;1.00;;;;;;2284780;60;956;-83
2020/12/18 05:31:14;44870.00;0.15;78.31;0.00;0.00;0.62;;;;;12.30;1.00;;;;;;2280878;60;1036;-83
2020/12/18 05:33:42;192578.00;0.64;333.15;0.00;0.00;0.62;;;;;12.80;1.00;;;;;;2270873;61;1296;-82
2020/12/18 05:36:09;207223.00;0.69;358.36;0.00;0.00;0.62;;;;;12.80;1.00;;;;;;2262303;61;2002;-83
2020/12/18 05:38:37;115322.00;0.38;200.01;0.00;0.00;0.62;;;;;13.10;1.00;;;;;;2272108;61;1015;-82
2020/12/18 05:41:04;312845.00;1.04;540.00;0.00;0.00;0.62;;;;;13.10;1.00;;;;;;2262302;61;1001;-84
2020/12/18 05:43:38;158283.00;0.53;274.08;0.00;0.00;0.62;;;;;13.00;1.00;;;;;;2262261;61;1444;-81
2020/12/18 05:46:17;162691.00;0.54;281.68;0.00;0.00;0.62;;;;;12.70;1.00;;;;;;2262104;61;961;-84
2020/12/18 05:48:46;43705.00;0.15;76.30;0.00;0.00;0.62;;;;;12.60;1.00;;;;;;2272089;61;1020;-81
2020/12/18 05:51:27;59804.00;0.20;104.14;0.00;0.00;0.62;;;;;12.60;1.00;;;;;;2275629;60;1043;-82
2020/12/18 05:54:08;49820.00;0.17;86.87;0.00;0.00;0.62;;;;;12.40;1.00;;;;;;2275913;61;1321;-83
2020/12/18 05:56:35;96510.00;0.32;167.55;0.00;0.00;0.62;;;;;12.00;1.00;;;;;;2266080;61;2014;-83
2020/12/18 05:59:09;200052.00;0.67;346.01;0.00;0.00;0.62;;;;;12.20;1.00;;;;;;2276049;61;1037;-83
2020/12/18 06:01:40;0.00;0.00;0.62;0.00;0.00;0.62;;;;;12.70;1.00;;;;;;2265967;61;1009;-82
2020/12/18 06:04:15;30107.00;0.10;52.77;0.00;0.00;0.62;;;;;13.00;1.00;;;;;;2265837;61;1509;-83
2020/12/18 06:06:47;38239.00;0.13;66.84;0.00;0.00;0.62;;;;;13.20;1.00;;;;;;2265762;61;986;-84
2020/12/18 06:09:15;13072.00;0.04;23.27;0.00;0.00;0.62;;;;;13.30;1.00;;;;;;2265837;61;966;-83
2020/12/18 06:11:41;57696.00;0.19;100.49;0.00;0.00;0.62;;;;;13.40;1.00;;;;;;2269350;60;1089;-82
2020/12/18 06:14:10;49262.00;0.16;85.91;0.00;0.00;0.62;;;;;13.40;1.00;;;;;;2280667;60;1549;-84
2020/12/18 06:19:06;14475.00;0.05;25.70;0.00;0.00;0.62;;;;;13.00;1.00;;;;;;2286547;60;1410;-83
2020/12/18 06:21:34;40273.00;0.13;70.36;0.00;0.00;0.62;;;;;11.90;1.00;;;;;;2274326;60;963;-83
2020/12/18 06:24:02;78715.00;0.26;136.82;0.00;0.00;0.62;;;;;11.50;1.00;;;;;;2275971;60;1313;-79
2020/12/18 06:26:29;97206.00;0.32;168.75;0.00;0.00;0.62;;;;;11.20;1.00;;;;;;2276090;61;1098;-82
2020/12/18 06:29:05;34879.00;0.12;61.03;0.00;0.00;0.62;;;;;11.10;1.00;;;;;;2276235;60;1024;-81
2020/12/18 06:31:34;41224.00;0.14;72.01;0.00;0.00;0.62;;;;;11.50;1.70;;;;;;2275984;61;973;-83
2020/12/18 06:34:02;46183.00;0.15;80.58;0.00;0.00;0.62;;;;;12.30;1.00;;;;;;2265938;61;1332;-84
2020/12/18 06:36:56;22513.00;0.08;39.62;0.00;0.00;0.62;;;;;12.50;1.00;;;;;;2269405;61;1998;-83
2020/12/18 06:39:24;185276.00;0.62;320.57;81511.00;0.27;141.65;;;;;12.10;1.00;;;;;;2269209;61;966;-82
2020/12/18 06:42:10;135384.00;0.45;234.61;0.00;0.00;0.62;;;;;11.30;1.00;;;;;;2279588;60;1027;-83
2020/12/18 06:44:38;150757.00;0.50;261.11;0.00;0.00;0.62;;;;;11.20;1.00;;;;;;2284610;60;1044;-83
2020/12/18 06:47:14;181495.00;0.60;314.06;0.00;0.00;0.62;;;;;11.30;1.00;;;;;;2274193;60;975;-82
2020/12/18 06:50:06;158010.00;0.53;273.61;0.00;0.00;0.62;;;;;11.50;1.60;;;;;;2284650;60;950;-86
2020/12/18 06:52:49;272556.00;0.91;470.74;47485.00;0.16;82.84;;;;;12.00;1.00;;;;;;2284490;60;1360;-82
2020/12/18 06:57:44;140921.00;0.47;244.16;0.00;0.00;0.62;;;;;12.60;1.00;;;;;;2286986;61;1962;-84
2020/12/18 07:00:30;234530.00;0.78;405.34;27912.00;0.09;48.97;;;;;12.50;1.00;;;;;;2274346;60;921;-82
2020/12/18 07:02:57;284403.00;0.95;491.11;0.00;0.00;0.62;;;;;12.90;1.00;;;;;;2271902;60;1422;-84
2020/12/18 07:05:35;351841.00;1.17;607.03;89264.00;0.30;155.04;;;;;13.10;1.00;;;;;;2265591;61;937;-83
2020/12/18 07:08:06;395543.00;1.32;682.14;84522.00;0.28;146.85;;;;;12.80;1.00;;;;;;2268659;61;952;-83
2020/12/18 07:10:36;465774.00;1.55;802.92;83711.00;0.28;145.45;;;;;12.50;1.00;;;;;;2268713;60;984;-83
2020/12/18 07:13:04;459540.00;1.53;792.19;80816.00;0.27;140.45;;;;;12.90;1.00;;;;;;2267949;61;1428;-83
2020/12/18 07:15:51;744035.00;2.48;1283.69;139631.00;0.47;241.93;;;;;12.70;1.00;;;;;;2267939;61;1034;-82
2020/12/18 07:18:23;46332.00;0.15;80.84;0.00;0.00;0.62;;;;;12.50;1.00;;;;;;2246111;61;1023;-82
2020/12/18 07:20:51;195978.00;0.65;339.00;0.00;0.00;0.62;;;;;12.30;1.00;;;;;;2254478;61;1060;-84
2020/12/18 07:25:47;222487.00;0.74;384.62;0.00;0.00;0.62;;;;;12.80;1.00;;;;;;2286167;60;1385;-83
2020/12/18 07:28:15;39846.00;0.13;69.62;0.00;0.00;0.62;;;;;12.50;1.00;;;;;;2271783;61;983;-83
2020/12/18 07:30:44;130537.00;0.44;226.26;0.00;0.00;0.62;;;;;13.00;1.00;;;;;;2269085;61;1046;-83
2020/12/18 07:33:12;137837.00;0.46;238.84;0.00;0.00;0.62;;;;;12.20;1.00;;;;;;2272276;61;1352;-83
2020/12/18 07:35:41;306041.00;1.02;528.30;11394.00;0.04;20.36;;;;;12.40;1.00;;;;;;2268903;61;988;-83
2020/12/18 07:38:18;95632.00;0.32;166.03;0.00;0.00;0.62;;;;;12.50;1.00;;;;;;2268298;61;931;-82
2020/12/18 07:40:46;22531.00;0.08;39.65;0.00;0.00;0.62;;;;;12.90;1.00;;;;;;2256190;61;1033;-84
2020/12/18 07:43:15;16885.00;0.06;29.88;0.00;0.00;0.62;;;;;13.00;1.00;;;;;;2256173;61;1393;-84
2020/12/18 07:45:44;108703.00;0.36;188.59;0.00;0.00;0.62;;;;;12.40;1.00;;;;;;2258290;61;954;-83
2020/12/18 07:48:15;13053.00;0.04;23.24;0.00;0.00;0.62;;;;;12.10;1.00;;;;;;2264411;61;1028;-83
2020/12/18 07:53:10;91033.00;0.30;158.09;0.00;0.00;0.62;;;;;12.60;1.00;;;;;;2286505;60;1392;-82
2020/12/18 07:55:38;158491.00;0.53;274.44;0.00;0.00;0.62;;;;;12.60;1.00;;;;;;2285087;60;1013;-83
2020/12/18 07:58:05;219372.00;0.73;379.26;0.00;0.00;0.62;;;;;12.90;1.00;;;;;;2285055;60;2002;-84
2020/12/18 08:00:31;400042.00;1.33;689.88;85022.00;0.28;147.71;;;;;12.50;1.00;;;;;;2272104;61;1069;-83
2020/12/18 08:02:58;288771.00;0.96;498.62;84923.00;0.28;147.54;;;;;12.70;1.00;;;;;;2260277;61;1405;-82
2020/12/18 08:05:25;200524.00;0.67;346.83;74836.00;0.25;130.12;;;;;12.80;1.00;;;;;;2253687;61;1003;-84
2020/12/18 08:07:56;226911.00;0.76;392.23;83630.00;0.28;145.31;;;;;12.40;1.00;;;;;;2263618;55;4130;31
2020/12/18 08:10:23;341240.00;1.14;588.80;84238.00;0.28;146.36;;;;;12.30;1.00;;;;;;2274263;61;1358;-83
2020/12/18 08:12:50;125176.00;0.42;217.01;0.00;0.00;0.62;;;;;12.70;1.00;;;;;;2268911;61;1347;-84
2020/12/18 08:15:18;61083.00;0.20;106.35;0.00;0.00;0.62;;;;;12.90;1.00;;;;;;2269281;61;1021;-83
2020/12/18 08:17:45;247065.00;0.82;426.90;35588.00;0.12;62.25;;;;;12.70;1.00;;;;;;2272434;61;1999;-82
2020/12/18 08:20:14;107694.00;0.36;186.85;0.00;0.00;0.62;;;;;12.60;1.00;;;;;;2269252;61;993;-81
2020/12/18 08:22:44;98154.00;0.33;170.39;31784.00;0.11;55.67;;;;;12.80;1.00;;;;;;2269180;61;1371;-83
2020/12/18 08:25:14;68881.00;0.23;119.83;0.00;0.00;0.62;;;;;13.10;1.00;;;;;;2265673;61;1008;-83
2020/12/18 08:27:51;47564.00;0.16;82.97;0.00;0.00;0.62;;;;;13.00;1.00;;;;;;2274843;60;1156;-79
2020/12/18 08:30:22;30841.00;0.10;54.04;0.00;0.00;0.62;;;;;12.80;1.00;;;;;;2281274;60;989;-82
2020/12/18 08:32:54;39047.00;0.13;68.24;0.00;0.00;0.62;;;;;13.10;1.00;;;;;;2280420;60;1496;-81
2020/12/18 08:35:23;65291.00;0.22;113.62;0.00;0.00;0.62;;;;;13.20;1.00;;;;;;2280492;60;924;-82
2020/12/18 08:37:50;0.00;0.00;0.62;0.00;0.00;0.62;;;;;13.40;1.00;;;;;;2280503;60;1993;-82
2020/12/18 08:40:23;252510.00;0.84;436.27;0.00;0.00;0.62;;;;;13.50;1.00;;;;;;2268014;61;937;-82
2020/12/18 08:43:00;764758.00;2.55;1319.73;0.00;0.00;0.62;;;;;13.50;1.00;;;;;;2264826;61;1590;-84
2020/12/18 08:47:57;24225.00;0.08;42.59;0.00;0.00;0.62;;;;;13.90;1.00;;;;;;2286701;60;1429;-83
2020/12/18 08:52:54;174139.00;0.58;301.40;0.00;0.00;0.62;;;;;13.70;1.00;;;;;;2286086;60;1485;-81
2020/12/18 08:55:22;0.00;0.00;0.62;0.00;0.00;0.62;;;;;13.70;1.00;;;;;;2280806;60;931;-80
2020/12/18 08:57:48;0.00;0.00;0.62;0.00;0.00;0.62;;;;;13.50;1.00;;;;;;2277763;60;2033;-82
2020/12/18 09:02:55;29793.00;0.10;52.22;0.00;0.00;0.62;;;;;13.70;1.00;;;;;;2286408;60;1385;-80
2020/12/18 09:05:25;138208.00;0.46;239.48;0.00;0.00;0.62;;;;;13.80;1.00;;;;;;2284873;60;946;-78
2020/12/18 09:08:00;82012.00;0.27;142.51;0.00;0.00;0.62;;;;;13.70;1.00;;;;;;2274321;60;986;-82
2020/12/18 09:10:38;112005.00;0.37;194.29;30223.00;0.10;52.97;;;;;14.00;1.00;;;;;;2272243;61;1029;-83
2020/12/18 09:13:09;80870.00;0.27;140.54;0.00;0.00;0.62;;;;;14.30;1.00;;;;;;2272281;61;1431;-81
2020/12/18 09:15:36;0.00;0.00;0.62;0.00;0.00;0.62;;;;;14.50;1.00;;;;;;2272111;61;995;-82
2020/12/18 09:18:06;0.00;0.00;0.62;0.00;0.00;0.62;;;;;14.50;1.00;;;;;;2265476;61;1932;-82
2020/12/18 09:20:35;0.00;0.00;0.62;0.00;0.00;0.62;;;;;14.40;1.00;;;;;;2262169;61;982;-83
2020/12/18 09:23:07;113157.00;0.38;196.28;0.00;0.00;0.62;;;;;14.40;1.00;;;;;;2272068;61;1428;-81
2020/12/18 09:25:38;10789.00;0.04;19.32;0.00;0.00;0.62;;;;;14.20;1.00;;;;;;2263981;61;987;-82
2020/12/18 09:28:09;46946.00;0.16;81.90;0.00;0.00;0.62;;;;;13.70;1.00;;;;;;2266819;61;1025;-83
2020/12/18 09:30:36;7932.00;0.03;14.37;0.00;0.00;0.62;;;;;13.80;1.00;;;;;;2268803;61;1020;-84
2020/12/18 09:33:25;0.00;0.00;0.62;0.00;0.00;0.62;;;;;14.10;1.00;;;;;;2271936;61;1416;-82
2020/12/18 09:35:54;13968.00;0.05;24.82;0.00;0.00;0.62;;;;;14.10;1.00;;;;;;2268751;61;964;-83
2020/12/18 09:38:26;0.00;0.00;0.62;0.00;0.00;0.62;;;;;14.30;1.00;;;;;;2272131;61;1006;-83
2020/12/18 09:40:53;0.00;0.00;0.62;0.00;0.00;0.62;;;;;14.30;1.00;;;;;;2272093;61;989;-83
2020/12/18 09:43:20;0.00;0.00;0.62;0.00;0.00;0.62;;;;;14.30;1.00;;;;;;2277003;60;1340;-83
2020/12/18 09:45:48;56380.00;0.19;98.22;0.00;0.00;0.62;;;;;14.30;1.00;;;;;;2274267;60;1016;-82
2020/12/18 09:48:16;30860.00;0.10;54.07;0.00;0.00;0.62;;;;;14.30;1.00;;;;;;2278858;60;1563;-81
2020/12/18 09:50:42;8387.00;0.03;15.15;0.00;0.00;0.62;;;;;14.20;1.00;;;;;;2284228;60;1245;-82
2020/12/18 09:53:10;0.00;0.00;0.62;0.00;0.00;0.62;;;;;14.40;1.00;;;;;;2284053;60;1379;-80
2020/12/18 09:58:05;21062.00;0.07;37.11;0.00;0.00;0.62;;;;;14.60;1.00;;;;;;2286436;60;1959;-80
2020/12/18 10:00:32;156504.00;0.52;271.02;0.00;0.00;0.62;;;;;14.60;1.00;;;;;;2284718;60;1568;-80
2020/12/18 10:02:59;0.00;0.00;0.62;0.00;0.00;0.62;;;;;14.80;1.00;;;;;;2284614;60;1350;-79
2020/12/18 10:05:27;23931.00;0.08;42.08;0.00;0.00;0.62;;;;;15.10;1.00;;;;;;2284240;60;1621;-80
2020/12/18 10:07:54;12361.00;0.04;22.04;0.00;0.00;0.62;;;;;15.20;1.00;;;;;;2284788;60;1800;-80
2020/12/18 10:10:22;44093.00;0.15;76.97;0.00;0.00;0.62;;;;;15.40;1.00;;;;;;2284782;60;911;-82
2020/12/18 10:12:49;148.00;0.00;0.88;0.00;0.00;0.62;;;;;15.40;1.00;;;;;;2284758;60;1421;-80
2020/12/18 10:15:15;98700.00;0.33;171.33;0.00;0.00;0.62;;;;;15.10;1.00;;;;;;2284449;60;1790;-83
2020/12/18 10:17:42;62781.00;0.21;109.28;0.00;0.00;0.62;;;;;14.60;1.00;;;;;;2283965;60;2009;-83
2020/12/18 10:20:09;0.00;0.00;0.62;0.00;0.00;0.62;;;;;14.70;1.00;;;;;;2284447;60;1263;-81
2020/12/18 10:22:35;192118.00;0.64;332.36;0.00;0.00;0.62;;;;;14.70;1.00;;;;;;2284621;60;1387;-82
2020/12/18 10:25:01;57227.00;0.19;99.68;0.00;0.00;0.62;;;;;15.00;1.00;;;;;;2284804;60;981;-82
2020/12/18 10:27:29;0.00;0.00;0.62;0.00;0.00;0.62;;;;;15.00;1.00;;;;;;2277585;60;949;-83
2020/12/18 10:29:55;123443.00;0.41;214.02;0.00;0.00;0.62;;;;;15.20;1.00;;;;;;2284624;60;1000;-84
2020/12/18 10:32:25;53971.00;0.18;94.05;0.00;0.00;0.62;;;;;15.30;1.00;;;;;;2279638;61;1313;-83
2020/12/18 10:34:52;126081.00;0.42;218.57;24420.00;0.08;42.92;;;;;15.30;1.00;;;;;;2276531;61;1057;-84
2020/12/18 10:37:18;0.00;0.00;0.62;0.00;0.00;0.62;;;;;15.30;1.00;;;;;;2267561;61;2002;-82
2020/12/18 10:39:47;13567.00;0.05;24.13;0.00;0.00;0.62;;;;;15.00;1.00;;;;;;2264476;61;1021;-84
2020/12/18 10:42:13;0.00;0.00;0.62;0.00;0.00;0.62;;;;;14.90;1.00;;;;;;2264380;61;1460;-84
2020/12/18 10:44:41;0.00;0.00;0.62;0.00;0.00;0.62;;;;;14.60;1.00;;;;;;2264557;61;1028;-82